sensor_id;sensor_type;location;lat;lon;timestamp;P1;durP1;ratioP1;P2;durP2;ratioP2
57663;SDS011;43493;53.098;6.064;2023-06-10T00:02:07;11.27;;;5.60;;
57663;SDS011;43493;53.098;6.064;2023-06-10T00:04:33;10.87;;;4.80;;
57663;SDS011;43493;53.098;6.064;2023-06-10T00:07:01;9.60;;;4.63;;
57663;SDS011;43493;53.098;6.064;2023-06-10T00:09:28;9.20;;;4.57;;
57663;SDS011;43493;53.098;6.064;2023-06-10T00:11:54;11.50;;;5.20;;
57663;SDS011;43493;53.098;6.064;2023-06-10T00:14:20;9.10;;;4.30;;
57663;SDS011;43493;53.098;6.064;2023-06-10T00:16:46;7.87;;;4.90;;
57663;SDS011;43493;53.098;6.064;2023-06-10T00:19:12;9.77;;;5.20;;
57663;SDS011;43493;53.098;6.064;2023-06-10T00:21:41;8.70;;;4.30;;
57663;SDS011;43493;53.098;6.064;2023-06-10T00:24:10;7.73;;;4.97;;
57663;SDS011;43493;53.098;6.064;2023-06-10T00:26:37;13.83;;;5.17;;
57663;SDS011;43493;53.098;6.064;2023-06-10T00:29:03;9.03;;;5.03;;
57663;SDS011;43493;53.098;6.064;2023-06-10T00:31:29;9.13;;;5.10;;
57663;SDS011;43493;53.098;6.064;2023-06-10T00:33:55;11.03;;;5.20;;
57663;SDS011;43493;53.098;6.064;2023-06-10T00:36:21;8.37;;;4.73;;
57663;SDS011;43493;53.098;6.064;2023-06-10T00:38:46;11.63;;;5.40;;
57663;SDS011;43493;53.098;6.064;2023-06-10T00:41:12;9.87;;;6.13;;
57663;SDS011;43493;53.098;6.064;2023-06-10T00:43:38;12.47;;;4.90;;
57663;SDS011;43493;53.098;6.064;2023-06-10T00:46:04;8.87;;;5.50;;
57663;SDS011;43493;53.098;6.064;2023-06-10T00:48:30;13.33;;;5.60;;
57663;SDS011;43493;53.098;6.064;2023-06-10T00:50:57;11.93;;;4.43;;
57663;SDS011;43493;53.098;6.064;2023-06-10T00:53:24;8.03;;;4.13;;
57663;SDS011;43493;53.098;6.064;2023-06-10T00:55:51;9.57;;;4.60;;
57663;SDS011;43493;53.098;6.064;2023-06-10T00:58:17;11.07;;;5.10;;
57663;SDS011;43493;53.098;6.064;2023-06-10T01:00:44;9.33;;;4.70;;
57663;SDS011;43493;53.098;6.064;2023-06-10T01:03:10;9.13;;;4.57;;
57663;SDS011;43493;53.098;6.064;2023-06-10T01:05:39;10.33;;;4.90;;
57663;SDS011;43493;53.098;6.064;2023-06-10T01:08:12;11.87;;;4.80;;
57663;SDS011;43493;53.098;6.064;2023-06-10T01:10:44;8.20;;;5.07;;
57663;SDS011;43493;53.098;6.064;2023-06-10T01:13:20;10.87;;;4.73;;
57663;SDS011;43493;53.098;6.064;2023-06-10T01:15:53;10.03;;;5.57;;
57663;SDS011;43493;53.098;6.064;2023-06-10T01:18:20;10.53;;;5.27;;
57663;SDS011;43493;53.098;6.064;2023-06-10T01:20:46;11.70;;;5.67;;
57663;SDS011;43493;53.098;6.064;2023-06-10T01:23:14;8.87;;;4.60;;
57663;SDS011;43493;53.098;6.064;2023-06-10T01:25:46;11.57;;;5.27;;
57663;SDS011;43493;53.098;6.064;2023-06-10T01:28:26;12.10;;;5.23;;
57663;SDS011;43493;53.098;6.064;2023-06-10T01:34:02;8.33;;;4.77;;
57663;SDS011;43493;53.098;6.064;2023-06-10T01:36:34;12.63;;;5.20;;
57663;SDS011;43493;53.098;6.064;2023-06-10T01:39:01;8.10;;;4.80;;
57663;SDS011;43493;53.098;6.064;2023-06-10T01:41:29;8.60;;;4.90;;
57663;SDS011;43493;53.098;6.064;2023-06-10T01:43:56;12.37;;;5.07;;
57663;SDS011;43493;53.098;6.064;2023-06-10T01:46:21;10.73;;;5.23;;
57663;SDS011;43493;53.098;6.064;2023-06-10T01:48:47;8.47;;;4.87;;
57663;SDS011;43493;53.098;6.064;2023-06-10T01:51:13;10.20;;;4.90;;
57663;SDS011;43493;53.098;6.064;2023-06-10T01:53:39;9.13;;;5.53;;
57663;SDS011;43493;53.098;6.064;2023-06-10T01:56:05;12.17;;;5.27;;
57663;SDS011;43493;53.098;6.064;2023-06-10T01:58:30;9.40;;;4.97;;
57663;SDS011;43493;53.098;6.064;2023-06-10T02:00:56;9.20;;;5.27;;
57663;SDS011;43493;53.098;6.064;2023-06-10T02:03:22;10.20;;;5.13;;
57663;SDS011;43493;53.098;6.064;2023-06-10T02:05:48;12.03;;;5.03;;
57663;SDS011;43493;53.098;6.064;2023-06-10T02:08:14;9.93;;;5.37;;
57663;SDS011;43493;53.098;6.064;2023-06-10T02:10:40;8.93;;;5.47;;
57663;SDS011;43493;53.098;6.064;2023-06-10T02:13:06;8.23;;;5.27;;
57663;SDS011;43493;53.098;6.064;2023-06-10T02:15:32;9.93;;;5.20;;
57663;SDS011;43493;53.098;6.064;2023-06-10T02:17:58;9.90;;;4.93;;
57663;SDS011;43493;53.098;6.064;2023-06-10T02:20:24;12.43;;;5.57;;
57663;SDS011;43493;53.098;6.064;2023-06-10T02:22:50;11.00;;;5.47;;
57663;SDS011;43493;53.098;6.064;2023-06-10T02:25:16;9.77;;;5.50;;
57663;SDS011;43493;53.098;6.064;2023-06-10T02:27:41;12.63;;;5.73;;
57663;SDS011;43493;53.098;6.064;2023-06-10T02:30:07;9.27;;;5.70;;
57663;SDS011;43493;53.098;6.064;2023-06-10T02:32:35;10.10;;;5.17;;
57663;SDS011;43493;53.098;6.064;2023-06-10T02:35:01;8.33;;;5.13;;
57663;SDS011;43493;53.098;6.064;2023-06-10T02:37:27;10.73;;;5.70;;
57663;SDS011;43493;53.098;6.064;2023-06-10T02:39:53;9.63;;;5.63;;
57663;SDS011;43493;53.098;6.064;2023-06-10T02:42:19;9.57;;;5.60;;
57663;SDS011;43493;53.098;6.064;2023-06-10T02:44:45;11.63;;;5.73;;
57663;SDS011;43493;53.098;6.064;2023-06-10T02:47:11;12.50;;;5.53;;
57663;SDS011;43493;53.098;6.064;2023-06-10T02:49:36;9.17;;;4.90;;
57663;SDS011;43493;53.098;6.064;2023-06-10T02:52:02;14.03;;;6.47;;
57663;SDS011;43493;53.098;6.064;2023-06-10T02:54:28;11.77;;;5.83;;
57663;SDS011;43493;53.098;6.064;2023-06-10T02:56:53;13.80;;;6.20;;
57663;SDS011;43493;53.098;6.064;2023-06-10T02:59:21;12.73;;;5.93;;
57663;SDS011;43493;53.098;6.064;2023-06-10T03:01:47;9.70;;;5.80;;
57663;SDS011;43493;53.098;6.064;2023-06-10T03:04:12;13.17;;;6.30;;
57663;SDS011;43493;53.098;6.064;2023-06-10T03:06:41;10.30;;;5.83;;
57663;SDS011;43493;53.098;6.064;2023-06-10T03:09:07;10.57;;;6.20;;
57663;SDS011;43493;53.098;6.064;2023-06-10T03:11:33;9.63;;;5.67;;
57663;SDS011;43493;53.098;6.064;2023-06-10T03:13:59;10.70;;;6.47;;
57663;SDS011;43493;53.098;6.064;2023-06-10T03:16:24;11.00;;;6.80;;
57663;SDS011;43493;53.098;6.064;2023-06-10T03:18:50;9.70;;;5.93;;
57663;SDS011;43493;53.098;6.064;2023-06-10T03:21:16;12.27;;;6.37;;
57663;SDS011;43493;53.098;6.064;2023-06-10T03:23:42;12.60;;;6.53;;
57663;SDS011;43493;53.098;6.064;2023-06-10T03:26:07;12.77;;;6.43;;
57663;SDS011;43493;53.098;6.064;2023-06-10T03:28:35;12.00;;;5.93;;
57663;SDS011;43493;53.098;6.064;2023-06-10T03:31:01;10.30;;;5.97;;
57663;SDS011;43493;53.098;6.064;2023-06-10T03:33:27;10.30;;;5.70;;
57663;SDS011;43493;53.098;6.064;2023-06-10T03:35:52;11.20;;;5.77;;
57663;SDS011;43493;53.098;6.064;2023-06-10T03:38:18;11.87;;;5.90;;
57663;SDS011;43493;53.098;6.064;2023-06-10T03:40:44;11.77;;;5.57;;
57663;SDS011;43493;53.098;6.064;2023-06-10T03:43:10;8.47;;;4.83;;
57663;SDS011;43493;53.098;6.064;2023-06-10T03:45:35;9.90;;;5.47;;
57663;SDS011;43493;53.098;6.064;2023-06-10T03:48:01;9.70;;;5.03;;
57663;SDS011;43493;53.098;6.064;2023-06-10T03:50:28;9.90;;;6.33;;
57663;SDS011;43493;53.098;6.064;2023-06-10T03:52:54;11.73;;;5.40;;
57663;SDS011;43493;53.098;6.064;2023-06-10T03:55:20;10.77;;;5.67;;
57663;SDS011;43493;53.098;6.064;2023-06-10T03:57:47;10.47;;;5.80;;
57663;SDS011;43493;53.098;6.064;2023-06-10T04:00:14;8.27;;;5.07;;
57663;SDS011;43493;53.098;6.064;2023-06-10T04:02:41;9.87;;;5.70;;
57663;SDS011;43493;53.098;6.064;2023-06-10T04:05:14;9.47;;;4.93;;
57663;SDS011;43493;53.098;6.064;2023-06-10T04:07:43;8.73;;;5.30;;
57663;SDS011;43493;53.098;6.064;2023-06-10T04:10:12;10.33;;;5.00;;
57663;SDS011;43493;53.098;6.064;2023-06-10T04:12:38;11.20;;;5.70;;
57663;SDS011;43493;53.098;6.064;2023-06-10T04:15:05;9.27;;;5.23;;
57663;SDS011;43493;53.098;6.064;2023-06-10T04:17:32;10.70;;;5.10;;
57663;SDS011;43493;53.098;6.064;2023-06-10T04:19:57;9.17;;;4.83;;
57663;SDS011;43493;53.098;6.064;2023-06-10T04:22:23;16.50;;;5.20;;
57663;SDS011;43493;53.098;6.064;2023-06-10T04:24:49;10.50;;;4.87;;
57663;SDS011;43493;53.098;6.064;2023-06-10T04:27:15;10.07;;;4.73;;
57663;SDS011;43493;53.098;6.064;2023-06-10T04:29:41;10.03;;;4.57;;
57663;SDS011;43493;53.098;6.064;2023-06-10T04:32:07;10.13;;;5.07;;
57663;SDS011;43493;53.098;6.064;2023-06-10T04:34:36;9.73;;;5.00;;
57663;SDS011;43493;53.098;6.064;2023-06-10T04:37:05;7.70;;;4.97;;
57663;SDS011;43493;53.098;6.064;2023-06-10T04:39:31;9.40;;;5.13;;
57663;SDS011;43493;53.098;6.064;2023-06-10T04:41:57;10.50;;;4.90;;
57663;SDS011;43493;53.098;6.064;2023-06-10T04:44:23;13.13;;;4.97;;
57663;SDS011;43493;53.098;6.064;2023-06-10T04:46:48;10.97;;;5.17;;
57663;SDS011;43493;53.098;6.064;2023-06-10T04:49:14;13.00;;;5.97;;
57663;SDS011;43493;53.098;6.064;2023-06-10T04:51:40;10.17;;;4.90;;
57663;SDS011;43493;53.098;6.064;2023-06-10T04:54:06;12.23;;;5.80;;
57663;SDS011;43493;53.098;6.064;2023-06-10T04:56:31;10.37;;;5.60;;
57663;SDS011;43493;53.098;6.064;2023-06-10T04:58:57;13.23;;;5.17;;
57663;SDS011;43493;53.098;6.064;2023-06-10T05:01:24;12.50;;;5.47;;
57663;SDS011;43493;53.098;6.064;2023-06-10T05:03:50;13.67;;;5.47;;
57663;SDS011;43493;53.098;6.064;2023-06-10T05:06:16;9.33;;;5.73;;
57663;SDS011;43493;53.098;6.064;2023-06-10T05:08:41;13.37;;;5.53;;
57663;SDS011;43493;53.098;6.064;2023-06-10T05:11:07;12.93;;;6.90;;
57663;SDS011;43493;53.098;6.064;2023-06-10T05:13:33;10.40;;;6.30;;
57663;SDS011;43493;53.098;6.064;2023-06-10T05:15:59;10.97;;;5.73;;
57663;SDS011;43493;53.098;6.064;2023-06-10T05:18:25;13.63;;;5.47;;
57663;SDS011;43493;53.098;6.064;2023-06-10T05:20:51;10.30;;;5.53;;
57663;SDS011;43493;53.098;6.064;2023-06-10T05:23:19;10.03;;;5.43;;
57663;SDS011;43493;53.098;6.064;2023-06-10T05:25:45;10.30;;;5.47;;
57663;SDS011;43493;53.098;6.064;2023-06-10T05:28:11;10.37;;;6.03;;
57663;SDS011;43493;53.098;6.064;2023-06-10T05:30:37;10.60;;;6.20;;
57663;SDS011;43493;53.098;6.064;2023-06-10T05:33:03;10.53;;;4.70;;
57663;SDS011;43493;53.098;6.064;2023-06-10T05:35:29;10.80;;;5.73;;
57663;SDS011;43493;53.098;6.064;2023-06-10T05:37:55;10.13;;;5.73;;
57663;SDS011;43493;53.098;6.064;2023-06-10T05:40:21;9.73;;;5.13;;
57663;SDS011;43493;53.098;6.064;2023-06-10T05:42:47;9.70;;;4.77;;
57663;SDS011;43493;53.098;6.064;2023-06-10T05:45:12;9.57;;;5.10;;
57663;SDS011;43493;53.098;6.064;2023-06-10T05:47:38;8.80;;;4.67;;
57663;SDS011;43493;53.098;6.064;2023-06-10T05:50:05;10.80;;;4.80;;
57663;SDS011;43493;53.098;6.064;2023-06-10T05:52:35;9.50;;;5.10;;
57663;SDS011;43493;53.098;6.064;2023-06-10T05:55:04;10.10;;;5.00;;
57663;SDS011;43493;53.098;6.064;2023-06-10T05:57:30;9.40;;;4.57;;
57663;SDS011;43493;53.098;6.064;2023-06-10T05:59:56;10.87;;;4.70;;
57663;SDS011;43493;53.098;6.064;2023-06-10T06:02:22;9.47;;;5.00;;
57663;SDS011;43493;53.098;6.064;2023-06-10T06:04:48;8.70;;;4.43;;
57663;SDS011;43493;53.098;6.064;2023-06-10T06:07:13;9.93;;;4.60;;
57663;SDS011;43493;53.098;6.064;2023-06-10T06:09:39;10.17;;;4.47;;
57663;SDS011;43493;53.098;6.064;2023-06-10T06:12:05;9.10;;;5.33;;
57663;SDS011;43493;53.098;6.064;2023-06-10T06:14:32;9.10;;;4.53;;
57663;SDS011;43493;53.098;6.064;2023-06-10T06:17:01;8.97;;;4.70;;
57663;SDS011;43493;53.098;6.064;2023-06-10T06:19:27;9.07;;;4.43;;
57663;SDS011;43493;53.098;6.064;2023-06-10T06:21:53;7.13;;;4.50;;
57663;SDS011;43493;53.098;6.064;2023-06-10T06:24:19;11.33;;;4.73;;
57663;SDS011;43493;53.098;6.064;2023-06-10T06:26:44;8.53;;;4.30;;
57663;SDS011;43493;53.098;6.064;2023-06-10T06:29:10;10.63;;;4.80;;
57663;SDS011;43493;53.098;6.064;2023-06-10T06:31:36;9.53;;;4.80;;
57663;SDS011;43493;53.098;6.064;2023-06-10T06:34:01;7.13;;;4.30;;
57663;SDS011;43493;53.098;6.064;2023-06-10T06:36:27;8.27;;;5.00;;
57663;SDS011;43493;53.098;6.064;2023-06-10T06:38:53;9.50;;;4.70;;
57663;SDS011;43493;53.098;6.064;2023-06-10T06:41:18;8.97;;;4.57;;
57663;SDS011;43493;53.098;6.064;2023-06-10T06:43:44;8.43;;;4.30;;
57663;SDS011;43493;53.098;6.064;2023-06-10T06:46:10;8.32;;;4.07;;
57663;SDS011;43493;53.098;6.064;2023-06-10T06:48:36;8.82;;;3.95;;
57663;SDS011;43493;53.098;6.064;2023-06-10T06:51:01;8.80;;;4.30;;
57663;SDS011;43493;53.098;6.064;2023-06-10T06:53:27;8.90;;;4.25;;
57663;SDS011;43493;53.098;6.064;2023-06-10T06:55:53;7.13;;;4.07;;
57663;SDS011;43493;53.098;6.064;2023-06-10T06:58:18;7.82;;;4.32;;
57663;SDS011;43493;53.098;6.064;2023-06-10T07:00:44;11.85;;;4.93;;
57663;SDS011;43493;53.098;6.064;2023-06-10T07:03:10;8.05;;;4.10;;
57663;SDS011;43493;53.098;6.064;2023-06-10T07:05:36;9.10;;;4.47;;
57663;SDS011;43493;53.098;6.064;2023-06-10T07:08:02;8.45;;;3.97;;
57663;SDS011;43493;53.098;6.064;2023-06-10T07:10:28;7.55;;;4.40;;
57663;SDS011;43493;53.098;6.064;2023-06-10T07:12:54;10.18;;;4.30;;
57663;SDS011;43493;53.098;6.064;2023-06-10T07:15:20;7.32;;;4.20;;
57663;SDS011;43493;53.098;6.064;2023-06-10T07:17:46;8.02;;;4.40;;
57663;SDS011;43493;53.098;6.064;2023-06-10T07:20:11;7.30;;;4.28;;
57663;SDS011;43493;53.098;6.064;2023-06-10T07:22:38;8.88;;;4.30;;
57663;SDS011;43493;53.098;6.064;2023-06-10T07:25:07;6.95;;;4.43;;
57663;SDS011;43493;53.098;6.064;2023-06-10T07:27:32;7.45;;;4.47;;
57663;SDS011;43493;53.098;6.064;2023-06-10T07:29:58;8.00;;;4.43;;
57663;SDS011;43493;53.098;6.064;2023-06-10T07:32:26;8.50;;;4.15;;
57663;SDS011;43493;53.098;6.064;2023-06-10T07:34:51;10.18;;;4.10;;
57663;SDS011;43493;53.098;6.064;2023-06-10T07:37:17;8.13;;;4.13;;
57663;SDS011;43493;53.098;6.064;2023-06-10T07:39:44;7.50;;;4.05;;
57663;SDS011;43493;53.098;6.064;2023-06-10T07:42:10;8.15;;;4.70;;
57663;SDS011;43493;53.098;6.064;2023-06-10T07:44:36;7.82;;;5.00;;
57663;SDS011;43493;53.098;6.064;2023-06-10T07:47:01;9.52;;;4.22;;
57663;SDS011;43493;53.098;6.064;2023-06-10T07:49:28;7.68;;;4.07;;
57663;SDS011;43493;53.098;6.064;2023-06-10T07:51:54;8.35;;;4.38;;
57663;SDS011;43493;53.098;6.064;2023-06-10T07:54:20;9.27;;;4.80;;
57663;SDS011;43493;53.098;6.064;2023-06-10T07:56:46;7.95;;;4.50;;
57663;SDS011;43493;53.098;6.064;2023-06-10T07:59:13;6.85;;;4.00;;
57663;SDS011;43493;53.098;6.064;2023-06-10T08:01:39;6.82;;;3.55;;
57663;SDS011;43493;53.098;6.064;2023-06-10T08:04:05;6.88;;;4.38;;
57663;SDS011;43493;53.098;6.064;2023-06-10T08:06:31;8.75;;;4.40;;
57663;SDS011;43493;53.098;6.064;2023-06-10T08:08:57;6.63;;;4.07;;
57663;SDS011;43493;53.098;6.064;2023-06-10T08:11:23;8.63;;;4.70;;
57663;SDS011;43493;53.098;6.064;2023-06-10T08:13:49;7.68;;;3.58;;
57663;SDS011;43493;53.098;6.064;2023-06-10T08:16:16;8.30;;;3.85;;
57663;SDS011;43493;53.098;6.064;2023-06-10T08:18:42;6.93;;;4.45;;
57663;SDS011;43493;53.098;6.064;2023-06-10T08:21:07;8.73;;;4.22;;
57663;SDS011;43493;53.098;6.064;2023-06-10T08:23:33;7.03;;;3.97;;
57663;SDS011;43493;53.098;6.064;2023-06-10T08:25:59;6.20;;;3.90;;
57663;SDS011;43493;53.098;6.064;2023-06-10T08:28:24;8.18;;;4.28;;
57663;SDS011;43493;53.098;6.064;2023-06-10T08:30:50;7.55;;;4.20;;
57663;SDS011;43493;53.098;6.064;2023-06-10T08:33:16;7.13;;;4.13;;
57663;SDS011;43493;53.098;6.064;2023-06-10T08:35:41;11.48;;;4.18;;
57663;SDS011;43493;53.098;6.064;2023-06-10T08:38:07;8.57;;;3.65;;
57663;SDS011;43493;53.098;6.064;2023-06-10T08:40:33;5.72;;;3.60;;
57663;SDS011;43493;53.098;6.064;2023-06-10T08:43:06;8.45;;;3.78;;
57663;SDS011;43493;53.098;6.064;2023-06-10T08:45:34;9.50;;;3.70;;
57663;SDS011;43493;53.098;6.064;2023-06-10T08:48:04;8.93;;;4.20;;
57663;SDS011;43493;53.098;6.064;2023-06-10T08:50:34;7.40;;;4.20;;
57663;SDS011;43493;53.098;6.064;2023-06-10T08:53:04;7.15;;;3.95;;
57663;SDS011;43493;53.098;6.064;2023-06-10T08:55:32;8.57;;;3.75;;
57663;SDS011;43493;53.098;6.064;2023-06-10T08:58:01;5.57;;;3.55;;
57663;SDS011;43493;53.098;6.064;2023-06-10T09:00:28;7.50;;;3.70;;
57663;SDS011;43493;53.098;6.064;2023-06-10T09:02:56;5.40;;;3.63;;
57663;SDS011;43493;53.098;6.064;2023-06-10T09:05:22;5.82;;;4.32;;
57663;SDS011;43493;53.098;6.064;2023-06-10T09:07:49;8.93;;;4.50;;
57663;SDS011;43493;53.098;6.064;2023-06-10T09:10:17;8.77;;;3.90;;
57663;SDS011;43493;53.098;6.064;2023-06-10T09:12:43;8.35;;;4.38;;
57663;SDS011;43493;53.098;6.064;2023-06-10T09:15:09;6.63;;;3.60;;
57663;SDS011;43493;53.098;6.064;2023-06-10T09:17:36;6.25;;;3.78;;
57663;SDS011;43493;53.098;6.064;2023-06-10T09:20:03;7.38;;;3.50;;
57663;SDS011;43493;53.098;6.064;2023-06-10T09:22:29;8.82;;;3.78;;
57663;SDS011;43493;53.098;6.064;2023-06-10T09:25:05;7.72;;;4.10;;
57663;SDS011;43493;53.098;6.064;2023-06-10T09:27:43;5.88;;;3.30;;
57663;SDS011;43493;53.098;6.064;2023-06-10T09:32:56;9.80;;;3.97;;
57663;SDS011;43493;53.098;6.064;2023-06-10T09:35:27;9.20;;;4.10;;
57663;SDS011;43493;53.098;6.064;2023-06-10T09:37:55;10.40;;;4.03;;
57663;SDS011;43493;53.098;6.064;2023-06-10T09:40:25;6.27;;;3.33;;
57663;SDS011;43493;53.098;6.064;2023-06-10T09:42:53;8.67;;;3.90;;
57663;SDS011;43493;53.098;6.064;2023-06-10T09:45:20;7.57;;;3.53;;
57663;SDS011;43493;53.098;6.064;2023-06-10T09:47:47;5.27;;;2.70;;
57663;SDS011;43493;53.098;6.064;2023-06-10T09:50:16;5.60;;;3.10;;
57663;SDS011;43493;53.098;6.064;2023-06-10T09:52:42;7.97;;;3.80;;
57663;SDS011;43493;53.098;6.064;2023-06-10T09:55:10;7.43;;;3.70;;
57663;SDS011;43493;53.098;6.064;2023-06-10T09:57:36;8.70;;;3.63;;
57663;SDS011;43493;53.098;6.064;2023-06-10T10:00:04;8.43;;;3.33;;
57663;SDS011;43493;53.098;6.064;2023-06-10T10:02:43;6.13;;;3.30;;
57663;SDS011;43493;53.098;6.064;2023-06-10T10:05:14;6.30;;;3.03;;
57663;SDS011;43493;53.098;6.064;2023-06-10T10:07:41;6.33;;;3.40;;
57663;SDS011;43493;53.098;6.064;2023-06-10T10:10:07;6.50;;;2.80;;
57663;SDS011;43493;53.098;6.064;2023-06-10T10:12:35;7.60;;;2.90;;
57663;SDS011;43493;53.098;6.064;2023-06-10T10:15:02;6.43;;;3.20;;
57663;SDS011;43493;53.098;6.064;2023-06-10T10:17:30;5.23;;;2.80;;
57663;SDS011;43493;53.098;6.064;2023-06-10T10:20:02;6.67;;;2.90;;
57663;SDS011;43493;53.098;6.064;2023-06-10T10:22:30;7.23;;;2.97;;
57663;SDS011;43493;53.098;6.064;2023-06-10T10:25:02;6.87;;;3.30;;
57663;SDS011;43493;53.098;6.064;2023-06-10T10:27:33;7.73;;;3.67;;
57663;SDS011;43493;53.098;6.064;2023-06-10T10:30:03;7.53;;;3.27;;
57663;SDS011;43493;53.098;6.064;2023-06-10T10:35:44;6.53;;;3.17;;
57663;SDS011;43493;53.098;6.064;2023-06-10T10:38:11;6.60;;;2.80;;
57663;SDS011;43493;53.098;6.064;2023-06-10T10:40:37;4.83;;;2.90;;
57663;SDS011;43493;53.098;6.064;2023-06-10T10:43:04;5.43;;;2.80;;
57663;SDS011;43493;53.098;6.064;2023-06-10T10:45:31;5.50;;;3.30;;
57663;SDS011;43493;53.098;6.064;2023-06-10T10:47:58;5.00;;;2.90;;
57663;SDS011;43493;53.098;6.064;2023-06-10T10:50:36;5.63;;;2.97;;
57663;SDS011;43493;53.098;6.064;2023-06-10T10:53:03;6.20;;;3.00;;
57663;SDS011;43493;53.098;6.064;2023-06-10T10:55:30;7.73;;;3.73;;
57663;SDS011;43493;53.098;6.064;2023-06-10T10:57:59;5.87;;;2.90;;
57663;SDS011;43493;53.098;6.064;2023-06-10T11:00:43;7.50;;;2.80;;
57663;SDS011;43493;53.098;6.064;2023-06-10T11:03:13;6.47;;;3.17;;
57663;SDS011;43493;53.098;6.064;2023-06-10T11:05:45;5.70;;;3.13;;
57663;SDS011;43493;53.098;6.064;2023-06-10T11:08:15;5.13;;;2.80;;
57663;SDS011;43493;53.098;6.064;2023-06-10T11:11:16;7.27;;;3.30;;
57663;SDS011;43493;53.098;6.064;2023-06-10T11:14:05;8.13;;;3.67;;
57663;SDS011;43493;53.098;6.064;2023-06-10T11:16:38;6.57;;;2.87;;
57663;SDS011;43493;53.098;6.064;2023-06-10T11:19:05;6.97;;;3.00;;
57663;SDS011;43493;53.098;6.064;2023-06-10T11:21:31;8.03;;;3.13;;
57663;SDS011;43493;53.098;6.064;2023-06-10T11:24:00;7.97;;;3.03;;
57663;SDS011;43493;53.098;6.064;2023-06-10T11:26:43;9.40;;;3.00;;
57663;SDS011;43493;53.098;6.064;2023-06-10T11:29:09;5.77;;;3.30;;
57663;SDS011;43493;53.098;6.064;2023-06-10T11:31:38;5.47;;;3.20;;
57663;SDS011;43493;53.098;6.064;2023-06-10T11:34:06;5.77;;;3.30;;
57663;SDS011;43493;53.098;6.064;2023-06-10T11:36:34;5.33;;;3.03;;
57663;SDS011;43493;53.098;6.064;2023-06-10T11:39:05;5.80;;;2.80;;
57663;SDS011;43493;53.098;6.064;2023-06-10T11:41:32;4.53;;;3.10;;
57663;SDS011;43493;53.098;6.064;2023-06-10T11:44:03;6.37;;;3.47;;
57663;SDS011;43493;53.098;6.064;2023-06-10T11:46:33;5.90;;;3.00;;
57663;SDS011;43493;53.098;6.064;2023-06-10T11:48:59;5.63;;;2.73;;
57663;SDS011;43493;53.098;6.064;2023-06-10T11:51:26;6.87;;;3.60;;
57663;SDS011;43493;53.098;6.064;2023-06-10T11:53:53;6.40;;;3.00;;
57663;SDS011;43493;53.098;6.064;2023-06-10T11:56:24;4.80;;;2.40;;
57663;SDS011;43493;53.098;6.064;2023-06-10T12:01:24;6.33;;;3.10;;
57663;SDS011;43493;53.098;6.064;2023-06-10T12:03:57;6.07;;;3.20;;
57663;SDS011;43493;53.098;6.064;2023-06-10T12:06:23;5.53;;;3.23;;
57663;SDS011;43493;53.098;6.064;2023-06-10T12:08:49;6.70;;;3.03;;
57663;SDS011;43493;53.098;6.064;2023-06-10T12:11:15;8.97;;;3.27;;
57663;SDS011;43493;53.098;6.064;2023-06-10T12:13:47;6.93;;;3.30;;
57663;SDS011;43493;53.098;6.064;2023-06-10T12:16:14;5.13;;;3.07;;
57663;SDS011;43493;53.098;6.064;2023-06-10T12:18:43;6.60;;;3.13;;
57663;SDS011;43493;53.098;6.064;2023-06-10T12:21:20;6.10;;;3.20;;
57663;SDS011;43493;53.098;6.064;2023-06-10T12:27:00;7.90;;;3.40;;
57663;SDS011;43493;53.098;6.064;2023-06-10T12:29:24;6.23;;;3.27;;
57663;SDS011;43493;53.098;6.064;2023-06-10T12:34:37;6.47;;;3.20;;
57663;SDS011;43493;53.098;6.064;2023-06-10T12:37:05;13.18;;;3.22;;
57663;SDS011;43493;53.098;6.064;2023-06-10T12:39:38;8.30;;;3.60;;
57663;SDS011;43493;53.098;6.064;2023-06-10T12:42:04;6.90;;;3.20;;
57663;SDS011;43493;53.098;6.064;2023-06-10T12:44:34;7.23;;;3.33;;
57663;SDS011;43493;53.098;6.064;2023-06-10T12:47:12;8.27;;;2.90;;
57663;SDS011;43493;53.098;6.064;2023-06-10T12:49:38;5.93;;;3.63;;
57663;SDS011;43493;53.098;6.064;2023-06-10T12:52:04;9.37;;;3.57;;
57663;SDS011;43493;53.098;6.064;2023-06-10T12:54:30;6.27;;;3.10;;
57663;SDS011;43493;53.098;6.064;2023-06-10T12:56:56;5.40;;;2.80;;
57663;SDS011;43493;53.098;6.064;2023-06-10T12:59:22;5.97;;;3.17;;
57663;SDS011;43493;53.098;6.064;2023-06-10T13:01:52;5.80;;;2.50;;
57663;SDS011;43493;53.098;6.064;2023-06-10T13:04:19;6.90;;;3.50;;
57663;SDS011;43493;53.098;6.064;2023-06-10T13:06:46;7.43;;;3.67;;
57663;SDS011;43493;53.098;6.064;2023-06-10T13:09:14;6.50;;;3.10;;
57663;SDS011;43493;53.098;6.064;2023-06-10T13:11:40;5.53;;;3.13;;
57663;SDS011;43493;53.098;6.064;2023-06-10T13:14:07;6.20;;;3.27;;
57663;SDS011;43493;53.098;6.064;2023-06-10T13:16:33;5.87;;;3.40;;
57663;SDS011;43493;53.098;6.064;2023-06-10T13:18:59;5.87;;;3.33;;
57663;SDS011;43493;53.098;6.064;2023-06-10T13:21:27;6.40;;;3.17;;
57663;SDS011;43493;53.098;6.064;2023-06-10T13:23:53;6.97;;;2.90;;
57663;SDS011;43493;53.098;6.064;2023-06-10T13:26:19;5.70;;;2.93;;
57663;SDS011;43493;53.098;6.064;2023-06-10T13:28:46;5.77;;;3.40;;
57663;SDS011;43493;53.098;6.064;2023-06-10T13:31:12;9.20;;;3.47;;
57663;SDS011;43493;53.098;6.064;2023-06-10T13:33:37;7.70;;;3.00;;
57663;SDS011;43493;53.098;6.064;2023-06-10T13:36:03;7.17;;;3.07;;
57663;SDS011;43493;53.098;6.064;2023-06-10T13:38:29;6.07;;;3.10;;
57663;SDS011;43493;53.098;6.064;2023-06-10T13:40:55;5.53;;;2.97;;
57663;SDS011;43493;53.098;6.064;2023-06-10T13:43:21;6.97;;;3.20;;
57663;SDS011;43493;53.098;6.064;2023-06-10T13:45:46;5.63;;;3.07;;
57663;SDS011;43493;53.098;6.064;2023-06-10T13:48:12;7.90;;;3.67;;
57663;SDS011;43493;53.098;6.064;2023-06-10T13:50:38;6.87;;;3.77;;
57663;SDS011;43493;53.098;6.064;2023-06-10T13:53:03;8.63;;;4.17;;
57663;SDS011;43493;53.098;6.064;2023-06-10T13:55:29;9.40;;;4.27;;
57663;SDS011;43493;53.098;6.064;2023-06-10T13:57:55;8.97;;;4.07;;
57663;SDS011;43493;53.098;6.064;2023-06-10T14:00:21;8.43;;;3.63;;
57663;SDS011;43493;53.098;6.064;2023-06-10T14:02:46;9.03;;;4.27;;
57663;SDS011;43493;53.098;6.064;2023-06-10T14:05:12;8.03;;;3.90;;
57663;SDS011;43493;53.098;6.064;2023-06-10T14:07:38;7.77;;;4.20;;
57663;SDS011;43493;53.098;6.064;2023-06-10T14:10:05;10.53;;;3.67;;
57663;SDS011;43493;53.098;6.064;2023-06-10T14:12:33;6.73;;;3.40;;
57663;SDS011;43493;53.098;6.064;2023-06-10T14:14:59;7.87;;;4.20;;
57663;SDS011;43493;53.098;6.064;2023-06-10T14:17:26;6.20;;;3.57;;
57663;SDS011;43493;53.098;6.064;2023-06-10T14:19:51;11.90;;;5.03;;
57663;SDS011;43493;53.098;6.064;2023-06-10T14:22:17;8.60;;;3.97;;
57663;SDS011;43493;53.098;6.064;2023-06-10T14:24:43;14.20;;;4.17;;
57663;SDS011;43493;53.098;6.064;2023-06-10T14:27:08;8.17;;;3.63;;
57663;SDS011;43493;53.098;6.064;2023-06-10T14:29:34;8.53;;;3.87;;
57663;SDS011;43493;53.098;6.064;2023-06-10T14:32:00;7.63;;;3.57;;
57663;SDS011;43493;53.098;6.064;2023-06-10T14:34:26;9.70;;;4.00;;
57663;SDS011;43493;53.098;6.064;2023-06-10T14:36:59;9.23;;;3.90;;
57663;SDS011;43493;53.098;6.064;2023-06-10T14:39:25;10.20;;;4.00;;
57663;SDS011;43493;53.098;6.064;2023-06-10T14:41:51;8.00;;;4.17;;
57663;SDS011;43493;53.098;6.064;2023-06-10T14:44:18;9.43;;;4.10;;
57663;SDS011;43493;53.098;6.064;2023-06-10T14:46:43;8.57;;;3.67;;
57663;SDS011;43493;53.098;6.064;2023-06-10T14:49:09;8.23;;;3.90;;
57663;SDS011;43493;53.098;6.064;2023-06-10T14:51:35;7.10;;;3.87;;
57663;SDS011;43493;53.098;6.064;2023-06-10T14:54:01;8.80;;;4.07;;
57663;SDS011;43493;53.098;6.064;2023-06-10T14:56:26;7.87;;;5.03;;
57663;SDS011;43493;53.098;6.064;2023-06-10T14:58:52;7.57;;;3.83;;
57663;SDS011;43493;53.098;6.064;2023-06-10T15:01:18;7.33;;;3.57;;